sensor_id;sensor_type;location;lat;lon;timestamp;pressure;altitude;pressure_sealevel;temperature;humidity
41254;BME280;26987;59.928;30.306;2022-08-19T00:01:57;101842.75;;;21.68;69.10
41254;BME280;26987;59.928;30.306;2022-08-19T00:04:28;101870.78;;;21.80;69.63
41254;BME280;26987;59.928;30.306;2022-08-19T00:06:58;101850.88;;;21.63;69.88
41254;BME280;26987;59.928;30.306;2022-08-19T00:09:27;101869.72;;;21.64;70.42
41254;BME280;26987;59.928;30.306;2022-08-19T00:11:56;101807.59;;;21.22;70.65
41254;BME280;26987;59.928;30.306;2022-08-19T00:14:26;101863.91;;;21.55;71.22
41254;BME280;26987;59.928;30.306;2022-08-19T00:16:54;101859.19;;;21.51;71.58
41254;BME280;26987;59.928;30.306;2022-08-19T00:19:22;101857.94;;;21.36;71.90
41254;BME280;26987;59.928;30.306;2022-08-19T00:21:51;101861.25;;;21.38;72.32
41254;BME280;26987;59.928;30.306;2022-08-19T00:24:20;101862.00;;;21.34;72.51
41254;BME280;26987;59.928;30.306;2022-08-19T00:26:49;101856.41;;;21.23;72.99
41254;BME280;26987;59.928;30.306;2022-08-19T00:29:19;101859.41;;;21.22;73.19
41254;BME280;26987;59.928;30.306;2022-08-19T00:31:47;101866.75;;;21.21;73.46
41254;BME280;26987;59.928;30.306;2022-08-19T00:34:16;101865.59;;;21.17;73.62
41254;BME280;26987;59.928;30.306;2022-08-19T00:36:45;101861.66;;;21.08;73.89
41254;BME280;26987;59.928;30.306;2022-08-19T00:39:14;101851.69;;;20.96;73.84
41254;BME280;26987;59.928;30.306;2022-08-19T00:41:45;101858.88;;;21.02;74.08
41254;BME280;26987;59.928;30.306;2022-08-19T00:44:16;101875.22;;;21.02;74.39
41254;BME280;26987;59.928;30.306;2022-08-19T00:46:47;101871.81;;;20.95;74.78
41254;BME280;26987;59.928;30.306;2022-08-19T00:49:19;101874.22;;;20.91;75.28
41254;BME280;26987;59.928;30.306;2022-08-19T00:51:51;101855.47;;;20.78;75.50
41254;BME280;26987;59.928;30.306;2022-08-19T00:54:21;101863.97;;;20.82;75.99
41254;BME280;26987;59.928;30.306;2022-08-19T00:56:51;101864.44;;;20.78;76.37
41254;BME280;26987;59.928;30.306;2022-08-19T00:59:19;101859.44;;;20.70;76.66
41254;BME280;26987;59.928;30.306;2022-08-19T01:01:48;101864.28;;;20.68;76.89
41254;BME280;26987;59.928;30.306;2022-08-19T01:04:16;101851.00;;;20.54;77.29
41254;BME280;26987;59.928;30.306;2022-08-19T01:06:44;101853.72;;;20.54;77.37
41254;BME280;26987;59.928;30.306;2022-08-19T01:09:12;101864.13;;;20.58;77.56
41254;BME280;26987;59.928;30.306;2022-08-19T01:11:43;101861.91;;;20.54;77.91
41254;BME280;26987;59.928;30.306;2022-08-19T01:14:14;101867.28;;;20.49;78.11
41254;BME280;26987;59.928;30.306;2022-08-19T01:16:43;101856.22;;;20.39;78.42
41254;BME280;26987;59.928;30.306;2022-08-19T01:19:24;101872.13;;;20.47;78.37
41254;BME280;26987;59.928;30.306;2022-08-19T01:21:57;101878.00;;;20.39;78.53
41254;BME280;26987;59.928;30.306;2022-08-19T01:24:29;101882.25;;;20.35;78.81
41254;BME280;26987;59.928;30.306;2022-08-19T01:26:57;101879.97;;;20.26;78.98
41254;BME280;26987;59.928;30.306;2022-08-19T01:29:25;101883.53;;;20.27;79.31
41254;BME280;26987;59.928;30.306;2022-08-19T01:31:53;101885.06;;;20.23;79.63
41254;BME280;26987;59.928;30.306;2022-08-19T01:34:21;101888.53;;;20.18;79.77
41254;BME280;26987;59.928;30.306;2022-08-19T01:36:50;101886.31;;;20.15;79.92
41254;BME280;26987;59.928;30.306;2022-08-19T01:39:20;101883.81;;;20.13;80.29
41254;BME280;26987;59.928;30.306;2022-08-19T01:41:49;101891.63;;;20.10;80.34
41254;BME280;26987;59.928;30.306;2022-08-19T01:44:17;101889.16;;;20.08;80.52
41254;BME280;26987;59.928;30.306;2022-08-19T01:46:47;101889.63;;;20.05;80.79
41254;BME280;26987;59.928;30.306;2022-08-19T01:49:16;101896.41;;;20.02;81.06
41254;BME280;26987;59.928;30.306;2022-08-19T01:51:45;101883.72;;;19.96;81.24
41254;BME280;26987;59.928;30.306;2022-08-19T01:54:14;101891.53;;;19.92;81.64
41254;BME280;26987;59.928;30.306;2022-08-19T01:56:42;101895.69;;;19.95;81.86
41254;BME280;26987;59.928;30.306;2022-08-19T01:59:16;101900.31;;;19.95;82.08
41254;BME280;26987;59.928;30.306;2022-08-19T02:01:45;101899.13;;;19.90;82.20
41254;BME280;26987;59.928;30.306;2022-08-19T02:04:12;101904.00;;;19.88;82.14
41254;BME280;26987;59.928;30.306;2022-08-19T02:06:40;101908.84;;;19.86;82.46
41254;BME280;26987;59.928;30.306;2022-08-19T02:09:08;101904.69;;;19.84;82.52
41254;BME280;26987;59.928;30.306;2022-08-19T02:11:37;101905.69;;;19.77;82.93
41254;BME280;26987;59.928;30.306;2022-08-19T02:14:06;101910.63;;;19.81;82.84
41254;BME280;26987;59.928;30.306;2022-08-19T02:16:37;101905.69;;;19.77;83.08
41254;BME280;26987;59.928;30.306;2022-08-19T02:19:06;101911.13;;;19.77;83.36
41254;BME280;26987;59.928;30.306;2022-08-19T02:21:34;101886.81;;;19.59;83.10
41254;BME280;26987;59.928;30.306;2022-08-19T02:24:02;101910.31;;;19.77;83.23
41254;BME280;26987;59.928;30.306;2022-08-19T02:26:31;101915.38;;;19.73;83.70
41254;BME280;26987;59.928;30.306;2022-08-19T02:28:59;101910.78;;;19.74;83.58
41254;BME280;26987;59.928;30.306;2022-08-19T02:31:28;101867.69;;;19.41;83.81
41254;BME280;26987;59.928;30.306;2022-08-19T02:33:57;101914.22;;;19.69;84.02
41254;BME280;26987;59.928;30.306;2022-08-19T02:36:25;101913.84;;;19.65;84.20
41254;BME280;26987;59.928;30.306;2022-08-19T02:38:54;101919.06;;;19.67;84.22
41254;BME280;26987;59.928;30.306;2022-08-19T02:41:23;101908.69;;;19.64;84.47
41254;BME280;26987;59.928;30.306;2022-08-19T02:43:52;101920.13;;;19.66;84.32
41254;BME280;26987;59.928;30.306;2022-08-19T02:46:23;101927.81;;;19.69;84.28
41254;BME280;26987;59.928;30.306;2022-08-19T02:48:55;101924.16;;;19.75;84.06
41254;BME280;26987;59.928;30.306;2022-08-19T02:51:27;101900.63;;;19.69;83.60
41254;BME280;26987;59.928;30.306;2022-08-19T02:53:56;101932.63;;;20.03;82.58
41254;BME280;26987;59.928;30.306;2022-08-19T02:56:25;101915.88;;;20.11;81.63
41254;BME280;26987;59.928;30.306;2022-08-19T02:58:54;101935.44;;;20.37;80.95
41254;BME280;26987;59.928;30.306;2022-08-19T03:01:24;101944.88;;;20.64;79.64
41254;BME280;26987;59.928;30.306;2022-08-19T03:03:53;101931.53;;;20.97;77.74
41254;BME280;26987;59.928;30.306;2022-08-19T03:06:22;101944.91;;;21.33;76.03
41254;BME280;26987;59.928;30.306;2022-08-19T03:08:52;101943.72;;;21.68;74.33
41254;BME280;26987;59.928;30.306;2022-08-19T03:11:22;101945.47;;;21.97;72.78
41254;BME280;26987;59.928;30.306;2022-08-19T03:13:51;101921.00;;;22.07;71.81
41254;BME280;26987;59.928;30.306;2022-08-19T03:16:21;101935.28;;;22.42;70.30
41254;BME280;26987;59.928;30.306;2022-08-19T03:18:49;101931.13;;;22.62;69.03
41254;BME280;26987;59.928;30.306;2022-08-19T03:21:21;101941.13;;;22.78;68.16
41254;BME280;26987;59.928;30.306;2022-08-19T03:23:53;101940.47;;;23.04;67.47
41254;BME280;26987;59.928;30.306;2022-08-19T03:26:22;101941.59;;;23.08;66.71
41254;BME280;26987;59.928;30.306;2022-08-19T03:28:49;101941.47;;;22.92;67.07
41254;BME280;26987;59.928;30.306;2022-08-19T03:31:20;101926.81;;;23.09;66.59
41254;BME280;26987;59.928;30.306;2022-08-19T03:33:49;101939.13;;;23.45;64.85
41254;BME280;26987;59.928;30.306;2022-08-19T03:36:20;101945.53;;;23.71;64.06
41254;BME280;26987;59.928;30.306;2022-08-19T03:38:52;101948.94;;;24.04;62.88
41254;BME280;26987;59.928;30.306;2022-08-19T03:41:22;101953.97;;;24.49;60.67
41254;BME280;26987;59.928;30.306;2022-08-19T03:43:52;101957.00;;;24.79;59.35
41254;BME280;26987;59.928;30.306;2022-08-19T03:46:23;101966.03;;;25.16;58.29
41254;BME280;26987;59.928;30.306;2022-08-19T03:48:53;101964.31;;;25.62;56.52
41254;BME280;26987;59.928;30.306;2022-08-19T03:51:24;101959.63;;;26.18;54.32
41254;BME280;26987;59.928;30.306;2022-08-19T03:53:55;101955.97;;;26.38;53.33
41254;BME280;26987;59.928;30.306;2022-08-19T03:56:23;101965.75;;;26.90;51.39
41254;BME280;26987;59.928;30.306;2022-08-19T03:58:52;101970.13;;;27.20;50.06
41254;BME280;26987;59.928;30.306;2022-08-19T04:01:22;101976.41;;;27.26;49.71
41254;BME280;26987;59.928;30.306;2022-08-19T04:03:53;101967.31;;;27.50;48.91
41254;BME280;26987;59.928;30.306;2022-08-19T04:06:23;101978.63;;;27.98;47.97
41254;BME280;26987;59.928;30.306;2022-08-19T04:08:54;101971.25;;;28.12;47.01
41254;BME280;26987;59.928;30.306;2022-08-19T04:11:24;101984.53;;;28.49;46.12
41254;BME280;26987;59.928;30.306;2022-08-19T04:13:53;101980.81;;;28.58;45.98
41254;BME280;26987;59.928;30.306;2022-08-19T04:16:24;101978.56;;;28.94;45.03
41254;BME280;26987;59.928;30.306;2022-08-19T04:18:56;101988.03;;;29.35;43.94
41254;BME280;26987;59.928;30.306;2022-08-19T04:21:25;101967.25;;;29.24;43.86
41254;BME280;26987;59.928;30.306;2022-08-19T04:23:56;101956.22;;;29.10;43.70
41254;BME280;26987;59.928;30.306;2022-08-19T04:26:27;101990.91;;;29.72;42.72
41254;BME280;26987;59.928;30.306;2022-08-19T04:28:57;101997.34;;;29.95;42.26
41254;BME280;26987;59.928;30.306;2022-08-19T04:31:27;101975.06;;;30.15;41.59
41254;BME280;26987;59.928;30.306;2022-08-19T04:33:57;101978.19;;;30.59;41.20
41254;BME280;26987;59.928;30.306;2022-08-19T04:36:27;101994.81;;;30.82;40.92
41254;BME280;26987;59.928;30.306;2022-08-19T04:38:59;101971.09;;;31.30;39.66
41254;BME280;26987;59.928;30.306;2022-08-19T04:41:27;101993.66;;;31.46;39.42
41254;BME280;26987;59.928;30.306;2022-08-19T04:44:12;101995.91;;;31.94;38.50
41254;BME280;26987;59.928;30.306;2022-08-19T04:46:44;101993.31;;;32.51;36.93
41254;BME280;26987;59.928;30.306;2022-08-19T04:49:14;102000.81;;;32.32;37.56
41254;BME280;26987;59.928;30.306;2022-08-19T04:51:45;101985.81;;;32.42;37.00
41254;BME280;26987;59.928;30.306;2022-08-19T04:54:15;101992.66;;;32.45;37.29
41254;BME280;26987;59.928;30.306;2022-08-19T04:56:43;101992.53;;;32.50;36.77
41254;BME280;26987;59.928;30.306;2022-08-19T04:59:11;101993.31;;;32.77;36.54
41254;BME280;26987;59.928;30.306;2022-08-19T05:01:42;102004.50;;;33.07;35.86
41254;BME280;26987;59.928;30.306;2022-08-19T05:04:16;101988.19;;;32.88;35.90
41254;BME280;26987;59.928;30.306;2022-08-19T05:06:45;102008.56;;;33.01;35.79
41254;BME280;26987;59.928;30.306;2022-08-19T05:09:15;101997.78;;;33.47;35.22
41254;BME280;26987;59.928;30.306;2022-08-19T05:11:44;102000.16;;;33.67;34.68
41254;BME280;26987;59.928;30.306;2022-08-19T05:14:12;101976.06;;;33.41;34.41
41254;BME280;26987;59.928;30.306;2022-08-19T05:16:40;102007.50;;;33.32;35.03
41254;BME280;26987;59.928;30.306;2022-08-19T05:19:08;101996.38;;;33.32;35.45
41254;BME280;26987;59.928;30.306;2022-08-19T05:21:54;102009.78;;;33.69;34.73
41254;BME280;26987;59.928;30.306;2022-08-19T05:24:40;102013.47;;;33.82;34.58
41254;BME280;26987;59.928;30.306;2022-08-19T05:27:08;102017.50;;;33.64;34.79
41254;BME280;26987;59.928;30.306;2022-08-19T05:29:36;102023.06;;;33.64;34.82
41254;BME280;26987;59.928;30.306;2022-08-19T05:32:06;102011.47;;;33.83;34.46
41254;BME280;26987;59.928;30.306;2022-08-19T05:34:35;102025.50;;;34.17;33.87
41254;BME280;26987;59.928;30.306;2022-08-19T05:37:05;101985.81;;;34.29;33.34
41254;BME280;26987;59.928;30.306;2022-08-19T05:39:35;102033.03;;;34.38;33.60
41254;BME280;26987;59.928;30.306;2022-08-19T05:42:06;102025.47;;;34.59;33.61
41254;BME280;26987;59.928;30.306;2022-08-19T05:44:36;102032.75;;;34.52;33.37
41254;BME280;26987;59.928;30.306;2022-08-19T05:47:07;102027.63;;;34.20;33.80
41254;BME280;26987;59.928;30.306;2022-08-19T05:49:36;102023.25;;;34.31;33.95
41254;BME280;26987;59.928;30.306;2022-08-19T05:52:06;102027.41;;;34.80;32.54
41254;BME280;26987;59.928;30.306;2022-08-19T05:54:37;102020.72;;;34.94;32.51
41254;BME280;26987;59.928;30.306;2022-08-19T05:57:09;102012.81;;;34.96;32.76
41254;BME280;26987;59.928;30.306;2022-08-19T05:59:37;102031.16;;;35.09;32.32
41254;BME280;26987;59.928;30.306;2022-08-19T06:02:06;102032.41;;;34.53;32.92
41254;BME280;26987;59.928;30.306;2022-08-19T06:04:34;102021.47;;;34.48;32.61
41254;BME280;26987;59.928;30.306;2022-08-19T06:07:02;102023.13;;;34.28;33.24
41254;BME280;26987;59.928;30.306;2022-08-19T06:09:31;102023.06;;;34.15;33.68
41254;BME280;26987;59.928;30.306;2022-08-19T06:11:59;102018.66;;;34.35;33.35
41254;BME280;26987;59.928;30.306;2022-08-19T06:14:30;102017.06;;;34.68;32.70
41254;BME280;26987;59.928;30.306;2022-08-19T06:16:58;102024.31;;;34.60;32.68
41254;BME280;26987;59.928;30.306;2022-08-19T06:19:28;102018.31;;;34.37;33.04
41254;BME280;26987;59.928;30.306;2022-08-19T06:21:59;102017.28;;;34.42;33.00
41254;BME280;26987;59.928;30.306;2022-08-19T06:24:28;102015.81;;;34.23;33.61
41254;BME280;26987;59.928;30.306;2022-08-19T06:26:59;102015.19;;;33.96;33.63
41254;BME280;26987;59.928;30.306;2022-08-19T06:29:29;102026.78;;;34.19;33.51
41254;BME280;26987;59.928;30.306;2022-08-19T06:31:59;102017.69;;;33.89;33.68
41254;BME280;26987;59.928;30.306;2022-08-19T06:34:29;102014.00;;;33.37;34.35
41254;BME280;26987;59.928;30.306;2022-08-19T06:36:58;102025.28;;;33.40;34.96
41254;BME280;26987;59.928;30.306;2022-08-19T06:39:30;102025.53;;;33.56;34.71
41254;BME280;26987;59.928;30.306;2022-08-19T06:42:00;102027.59;;;33.98;34.35
41254;BME280;26987;59.928;30.306;2022-08-19T06:44:33;102012.81;;;34.07;33.56
41254;BME280;26987;59.928;30.306;2022-08-19T06:47:03;102031.53;;;33.28;34.76
41254;BME280;26987;59.928;30.306;2022-08-19T06:49:31;102014.03;;;32.71;36.24
41254;BME280;26987;59.928;30.306;2022-08-19T06:52:00;102032.81;;;32.56;36.04
41254;BME280;26987;59.928;30.306;2022-08-19T06:54:29;102031.19;;;32.20;37.03
41254;BME280;26987;59.928;30.306;2022-08-19T06:56:57;102034.59;;;32.08;37.13
41254;BME280;26987;59.928;30.306;2022-08-19T06:59:30;102022.06;;;31.52;38.81
41254;BME280;26987;59.928;30.306;2022-08-19T07:02:02;102032.25;;;31.11;39.20
41254;BME280;26987;59.928;30.306;2022-08-19T07:04:34;101963.31;;;30.09;40.22
41254;BME280;26987;59.928;30.306;2022-08-19T07:07:05;102032.53;;;29.90;42.25
41254;BME280;26987;59.928;30.306;2022-08-19T07:09:34;102031.88;;;29.70;42.44
41254;BME280;26987;59.928;30.306;2022-08-19T07:12:04;102027.84;;;29.76;41.76
41254;BME280;26987;59.928;30.306;2022-08-19T07:14:34;102028.56;;;29.68;42.34
41254;BME280;26987;59.928;30.306;2022-08-19T07:17:06;102025.72;;;29.73;42.59
41254;BME280;26987;59.928;30.306;2022-08-19T07:19:35;102029.59;;;29.72;42.88
41254;BME280;26987;59.928;30.306;2022-08-19T07:22:05;102026.03;;;29.57;42.68
41254;BME280;26987;59.928;30.306;2022-08-19T07:24:36;102028.00;;;29.24;43.56
41254;BME280;26987;59.928;30.306;2022-08-19T07:27:06;102023.00;;;29.26;44.45
41254;BME280;26987;59.928;30.306;2022-08-19T07:29:37;102033.63;;;29.18;44.06
41254;BME280;26987;59.928;30.306;2022-08-19T07:32:06;102034.34;;;29.24;43.59
41254;BME280;26987;59.928;30.306;2022-08-19T07:34:35;102030.38;;;29.30;43.90
41254;BME280;26987;59.928;30.306;2022-08-19T07:37:04;102041.53;;;29.39;43.19
41254;BME280;26987;59.928;30.306;2022-08-19T07:39:35;102014.91;;;29.15;42.63
41254;BME280;26987;59.928;30.306;2022-08-19T07:42:09;102043.16;;;29.26;43.79
41254;BME280;26987;59.928;30.306;2022-08-19T07:44:37;102035.06;;;29.16;43.20
41254;BME280;26987;59.928;30.306;2022-08-19T07:47:07;102045.69;;;29.23;43.30
41254;BME280;26987;59.928;30.306;2022-08-19T07:49:34;102043.94;;;29.13;42.88
41254;BME280;26987;59.928;30.306;2022-08-19T07:52:05;102032.78;;;28.84;43.40
41254;BME280;26987;59.928;30.306;2022-08-19T07:54:35;102048.59;;;28.79;43.81
41254;BME280;26987;59.928;30.306;2022-08-19T07:57:04;102047.41;;;28.85;44.14
41254;BME280;26987;59.928;30.306;2022-08-19T07:59:32;102053.66;;;28.91;44.29
41254;BME280;26987;59.928;30.306;2022-08-19T08:02:00;102049.53;;;29.07;43.11
41254;BME280;26987;59.928;30.306;2022-08-19T08:04:31;102062.66;;;29.16;43.01
41254;BME280;26987;59.928;30.306;2022-08-19T08:07:16;102049.13;;;29.00;43.37
41254;BME280;26987;59.928;30.306;2022-08-19T08:10:03;102039.50;;;28.98;43.07
41254;BME280;26987;59.928;30.306;2022-08-19T08:12:36;102043.91;;;28.99;43.02
41254;BME280;26987;59.928;30.306;2022-08-19T08:15:10;102036.53;;;28.94;43.34
41254;BME280;26987;59.928;30.306;2022-08-19T08:17:38;102042.75;;;29.00;42.71
41254;BME280;26987;59.928;30.306;2022-08-19T08:20:09;102027.13;;;28.76;43.45
41254;BME280;26987;59.928;30.306;2022-08-19T08:22:37;102048.09;;;28.96;43.90
41254;BME280;26987;59.928;30.306;2022-08-19T08:25:27;102048.00;;;29.01;43.37
41254;BME280;26987;59.928;30.306;2022-08-19T08:27:55;102022.66;;;28.99;42.89
41254;BME280;26987;59.928;30.306;2022-08-19T08:30:28;102045.22;;;29.01;42.25
41254;BME280;26987;59.928;30.306;2022-08-19T08:32:56;102041.88;;;28.85;42.89
41254;BME280;26987;59.928;30.306;2022-08-19T08:35:26;102048.69;;;28.74;43.46
41254;BME280;26987;59.928;30.306;2022-08-19T08:37:54;102058.81;;;28.78;43.25
41254;BME280;26987;59.928;30.306;2022-08-19T08:40:27;102055.53;;;28.76;43.45
41254;BME280;26987;59.928;30.306;2022-08-19T08:42:59;102057.94;;;28.64;43.19
41254;BME280;26987;59.928;30.306;2022-08-19T08:45:30;102057.44;;;28.62;43.12
41254;BME280;26987;59.928;30.306;2022-08-19T08:48:06;102056.91;;;28.60;43.64
41254;BME280;26987;59.928;30.306;2022-08-19T08:50:40;102060.94;;;28.67;43.96
41254;BME280;26987;59.928;30.306;2022-08-19T08:53:14;102056.81;;;28.84;43.39
41254;BME280;26987;59.928;30.306;2022-08-19T08:55:44;102035.94;;;28.78;43.17
41254;BME280;26987;59.928;30.306;2022-08-19T08:58:15;102067.84;;;29.03;42.26
41254;BME280;26987;59.928;30.306;2022-08-19T09:00:47;102047.94;;;28.87;41.91
41254;BME280;26987;59.928;30.306;2022-08-19T09:03:22;102062.91;;;29.00;42.77
41254;BME280;26987;59.928;30.306;2022-08-19T09:06:00;102053.84;;;29.14;42.70
41254;BME280;26987;59.928;30.306;2022-08-19T09:08:42;102088.16;;;29.41;42.82
41254;BME280;26987;59.928;30.306;2022-08-19T09:11:22;102071.06;;;29.39;42.09
41254;BME280;26987;59.928;30.306;2022-08-19T09:14:02;102071.72;;;29.50;41.88
41254;BME280;26987;59.928;30.306;2022-08-19T09:16:35;102070.47;;;29.42;42.69
41254;BME280;26987;59.928;30.306;2022-08-19T09:19:07;102063.09;;;29.37;41.94
41254;BME280;26987;59.928;30.306;2022-08-19T09:21:38;102069.25;;;29.48;41.87
41254;BME280;26987;59.928;30.306;2022-08-19T09:24:09;102065.25;;;29.26;42.67
41254;BME280;26987;59.928;30.306;2022-08-19T09:26:37;102059.19;;;29.24;43.28
41254;BME280;26987;59.928;30.306;2022-08-19T09:29:05;102068.19;;;29.30;42.28
41254;BME280;26987;59.928;30.306;2022-08-19T09:31:33;102071.97;;;29.20;42.31
41254;BME280;26987;59.928;30.306;2022-08-19T09:34:03;102074.13;;;29.23;42.59
41254;BME280;26987;59.928;30.306;2022-08-19T09:36:31;102071.97;;;29.20;42.09
41254;BME280;26987;59.928;30.306;2022-08-19T09:39:04;102072.69;;;29.26;42.11
41254;BME280;26987;59.928;30.306;2022-08-19T09:41:33;102062.84;;;29.19;42.18
41254;BME280;26987;59.928;30.306;2022-08-19T09:44:01;102057.38;;;29.33;42.54
41254;BME280;26987;59.928;30.306;2022-08-19T09:46:29;102044.47;;;29.29;40.96
41254;BME280;26987;59.928;30.306;2022-08-19T09:48:59;102076.81;;;29.42;40.10
41254;BME280;26987;59.928;30.306;2022-08-19T09:51:28;102065.47;;;29.44;40.33
41254;BME280;26987;59.928;30.306;2022-08-19T09:54:00;102060.06;;;29.53;39.63
41254;BME280;26987;59.928;30.306;2022-08-19T09:56:30;102068.28;;;29.58;39.52
41254;BME280;26987;59.928;30.306;2022-08-19T09:58:59;102068.69;;;29.65;38.81
41254;BME280;26987;59.928;30.306;2022-08-19T10:01:29;102058.13;;;29.67;38.68
41254;BME280;26987;59.928;30.306;2022-08-19T10:03:58;102062.44;;;29.74;38.21
41254;BME280;26987;59.928;30.306;2022-08-19T10:06:29;102051.09;;;29.75;37.81
41254;BME280;26987;59.928;30.306;2022-08-19T10:08:59;102054.38;;;29.77;37.79
41254;BME280;26987;59.928;30.306;2022-08-19T10:11:30;102059.16;;;29.86;37.53
41254;BME280;26987;59.928;30.306;2022-08-19T10:13:58;102053.63;;;29.86;37.77
41254;BME280;26987;59.928;30.306;2022-08-19T10:16:26;102066.03;;;29.88;36.43
41254;BME280;26987;59.928;30.306;2022-08-19T10:18:54;102061.22;;;29.80;35.94
41254;BME280;26987;59.928;30.306;2022-08-19T10:21:26;102056.72;;;29.70;35.86
41254;BME280;26987;59.928;30.306;2022-08-19T10:23:56;102057.22;;;29.72;36.88
41254;BME280;26987;59.928;30.306;2022-08-19T10:26:27;102057.63;;;29.79;36.43
41254;BME280;26987;59.928;30.306;2022-08-19T10:28:57;102054.75;;;29.70;36.28
41254;BME280;26987;59.928;30.306;2022-08-19T10:31:27;102057.22;;;29.72;36.25
41254;BME280;26987;59.928;30.306;2022-08-19T10:33:56;102035.31;;;29.62;36.72
41254;BME280;26987;59.928;30.306;2022-08-19T10:36:29;102042.31;;;29.73;36.22
41254;BME280;26987;59.928;30.306;2022-08-19T10:39:00;102049.84;;;29.81;35.82
41254;BME280;26987;59.928;30.306;2022-08-19T10:41:31;102069.41;;;29.85;36.01
41254;BME280;26987;59.928;30.306;2022-08-19T10:44:02;102052.72;;;29.62;36.12
41254;BME280;26987;59.928;30.306;2022-08-19T10:46:31;102043.91;;;29.60;36.45
41254;BME280;26987;59.928;30.306;2022-08-19T10:49:00;102051.69;;;29.72;36.35
41254;BME280;26987;59.928;30.306;2022-08-19T10:51:29;102055.78;;;29.75;36.86
41254;BME280;26987;59.928;30.306;2022-08-19T10:54:14;102039.84;;;29.71;36.42
41254;BME280;26987;59.928;30.306;2022-08-19T10:56:42;102028.97;;;29.61;36.07
41254;BME280;26987;59.928;30.306;2022-08-19T10:59:21;102047.81;;;29.73;36.27
41254;BME280;26987;59.928;30.306;2022-08-19T11:01:50;102056.50;;;29.66;36.53
41254;BME280;26987;59.928;30.306;2022-08-19T11:04:19;102046.91;;;29.64;36.54
41254;BME280;26987;59.928;30.306;2022-08-19T11:06:49;102042.59;;;29.57;36.45
41254;BME280;26987;59.928;30.306;2022-08-19T11:09:19;102041.25;;;29.55;36.53
41254;BME280;26987;59.928;30.306;2022-08-19T11:11:47;102053.13;;;29.69;36.59
41254;BME280;26987;59.928;30.306;2022-08-19T11:14:16;102042.06;;;29.55;36.20
41254;BME280;26987;59.928;30.306;2022-08-19T11:16:49;102051.47;;;29.54;36.21
41254;BME280;26987;59.928;30.306;2022-08-19T11:19:17;102035.09;;;29.44;36.53
41254;BME280;26987;59.928;30.306;2022-08-19T11:21:48;102045.63;;;29.42;36.87
41254;BME280;26987;59.928;30.306;2022-08-19T11:24:18;102038.75;;;29.39;37.00
41254;BME280;26987;59.928;30.306;2022-08-19T11:26:47;102041.53;;;29.39;37.31
41254;BME280;26987;59.928;30.306;2022-08-19T11:29:18;102044.50;;;29.43;37.35
41254;BME280;26987;59.928;30.306;2022-08-19T11:31:49;102040.38;;;29.40;37.17
41254;BME280;26987;59.928;30.306;2022-08-19T11:34:20;102033.66;;;29.32;36.74
41254;BME280;26987;59.928;30.306;2022-08-19T11:36:50;102038.53;;;29.36;37.01
41254;BME280;26987;59.928;30.306;2022-08-19T11:39:21;102041.41;;;29.30;37.15
41254;BME280;26987;59.928;30.306;2022-08-19T11:41:49;102036.09;;;29.34;36.60
41254;BME280;26987;59.928;30.306;2022-08-19T11:44:17;102033.03;;;29.36;36.84
41254;BME280;26987;59.928;30.306;2022-08-19T11:46:45;102029.56;;;29.44;36.74
41254;BME280;26987;59.928;30.306;2022-08-19T11:49:17;102041.31;;;29.50;36.31
41254;BME280;26987;59.928;30.306;2022-08-19T11:51:47;102038.38;;;29.46;36.45
41254;BME280;26987;59.928;30.306;2022-08-19T11:54:16;102036.31;;;29.38;36.78
41254;BME280;26987;59.928;30.306;2022-08-19T11:56:45;102010.81;;;29.27;37.18
41254;BME280;26987;59.928;30.306;2022-08-19T11:59:15;102004.38;;;29.17;37.33
41254;BME280;26987;59.928;30.306;2022-08-19T12:01:45;102043.25;;;29.35;37.40
41254;BME280;26987;59.928;30.306;2022-08-19T12:04:15;102032.00;;;29.31;37.03
41254;BME280;26987;59.928;30.306;2022-08-19T12:06:43;102042.84;;;29.28;37.85
41254;BME280;26987;59.928;30.306;2022-08-19T12:09:18;102032.41;;;29.39;37.05
41254;BME280;26987;59.928;30.306;2022-08-19T12:11:52;102031.81;;;29.42;37.51
41254;BME280;26987;59.928;30.306;2022-08-19T12:14:21;102039.59;;;29.40;37.21
41254;BME280;26987;59.928;30.306;2022-08-19T12:16:49;102030.97;;;29.27;37.22
41254;BME280;26987;59.928;30.306;2022-08-19T12:19:19;102027.69;;;29.25;37.01
41254;BME280;26987;59.928;30.306;2022-08-19T12:21:46;102041.31;;;29.36;37.03
41254;BME280;26987;59.928;30.306;2022-08-19T12:24:14;102037.75;;;29.35;36.76
41254;BME280;26987;59.928;30.306;2022-08-19T12:26:49;102032.22;;;29.35;37.28
41254;BME280;26987;59.928;30.306;2022-08-19T12:29:18;102043.25;;;29.35;36.80
41254;BME280;26987;59.928;30.306;2022-08-19T12:31:46;102035.97;;;29.25;37.67
41254;BME280;26987;59.928;30.306;2022-08-19T12:34:14;102034.03;;;29.26;36.95
41254;BME280;26987;59.928;30.306;2022-08-19T12:36:43;102032.41;;;29.25;36.88
41254;BME280;26987;59.928;30.306;2022-08-19T12:39:11;102033.22;;;29.25;36.90
41254;BME280;26987;59.928;30.306;2022-08-19T12:41:39;102029.94;;;29.23;37.19
41254;BME280;26987;59.928;30.306;2022-08-19T12:44:07;102022.34;;;29.15;37.54
41254;BME280;26987;59.928;30.306;2022-08-19T12:46:35;102010.22;;;29.16;36.97
41254;BME280;26987;59.928;30.306;2022-08-19T12:49:03;102017.66;;;29.15;37.56
41254;BME280;26987;59.928;30.306;2022-08-19T12:51:30;101978.00;;;28.92;36.58
41254;BME280;26987;59.928;30.306;2022-08-19T12:54:00;102027.28;;;29.18;36.93
41254;BME280;26987;59.928;30.306;2022-08-19T12:56:29;102017.44;;;29.12;37.75